createdAt,value
2019-05-23T00:01:32.668Z,20.00
2019-05-23T00:06:40.335Z,19.15
2019-05-23T00:11:55.680Z,17.60
2019-05-23T00:17:02.198Z,21.75
2019-05-23T00:22:09.476Z,23.10
2019-05-23T00:27:17.599Z,20.13
2019-05-23T00:32:30.208Z,21.52
2019-05-23T00:37:37.016Z,20.33
2019-05-23T00:42:45.358Z,17.20
2019-05-23T00:47:53.355Z,19.37
2019-05-23T00:53:00.472Z,20.07
2019-05-23T00:58:08.261Z,20.10
2019-05-23T01:03:16.760Z,19.17
2019-05-23T01:08:23.662Z,20.25
2019-05-23T01:13:31.214Z,17.05
2019-05-23T01:18:38.688Z,17.20
2019-05-23T01:23:50.099Z,16.10
2019-05-23T01:28:57.412Z,15.03
2019-05-23T01:34:06.790Z,18.97
2019-05-23T01:39:13.802Z,25.00
2019-05-23T01:44:21.500Z,48.52
2019-05-23T01:49:28.749Z,40.87
2019-05-23T01:54:35.856Z,30.45
2019-05-23T01:59:43.257Z,17.70
2019-05-23T02:04:50.775Z,18.70
2019-05-23T02:09:57.924Z,13.28
2019-05-23T02:15:05.517Z,31.25
2019-05-23T02:20:14.216Z,14.45
2019-05-23T02:25:23.018Z,16.27
2019-05-23T02:30:34.768Z,13.20
2019-05-23T02:35:40.307Z,12.73
2019-05-23T02:41:05.496Z,15.67
2019-05-23T02:46:22.182Z,19.05
2019-05-23T02:51:32.454Z,15.53
2019-05-23T02:56:40.191Z,14.23
2019-05-23T03:02:30.553Z,13.20
2019-05-23T03:07:36.693Z,12.78
2019-05-23T03:12:45.842Z,11.83
2019-05-23T03:17:56.750Z,12.10
2019-05-23T03:23:14.071Z,12.00
2019-05-23T03:28:23.304Z,14.63
2019-05-23T03:33:31.670Z,15.23
2019-05-23T03:38:38.332Z,14.45
2019-05-23T03:43:46.024Z,19.97
2019-05-23T03:48:54.265Z,78.28
2019-05-23T03:54:03.936Z,67.20
2019-05-23T03:59:12.667Z,86.90
2019-05-23T04:04:20.294Z,73.78
2019-05-23T04:09:26.846Z,73.10
2019-05-23T04:14:34.057Z,52.97
2019-05-23T04:19:40.639Z,70.08
2019-05-23T04:24:47.559Z,69.27
2019-05-23T04:29:54.236Z,71.53
2019-05-23T04:35:00.982Z,92.17
2019-05-23T04:40:07.434Z,39.13
2019-05-23T04:45:14.740Z,77.70
2019-05-23T04:50:21.599Z,79.80
2019-05-23T04:55:28.904Z,52.70
2019-05-23T05:00:35.390Z,97.65
2019-05-23T05:05:42.369Z,36.05
2019-05-23T05:10:49.688Z,50.93
2019-05-23T05:15:56.422Z,70.03
2019-05-23T05:21:02.459Z,40.40
2019-05-23T05:26:12.418Z,48.53
2019-05-23T05:31:18.563Z,40.23
2019-05-23T05:36:25.191Z,28.30
2019-05-23T05:41:31.873Z,42.03
2019-05-23T05:46:38.206Z,68.33
2019-05-23T05:51:45.398Z,49.80
2019-05-23T05:56:52.306Z,65.67
2019-05-23T06:01:59.523Z,74.40
2019-05-23T06:07:28.020Z,54.93
2019-05-23T06:12:35.048Z,28.98
2019-05-23T06:17:42.657Z,45.43
2019-05-23T06:22:49.560Z,39.13
2019-05-23T06:27:57.188Z,35.78
2019-05-23T06:33:21.967Z,30.33
2019-05-23T06:38:14.013Z,32.13
2019-05-23T06:43:20.786Z,21.23
2019-05-23T06:48:27.375Z,21.95
2019-05-23T06:53:33.909Z,14.87
2019-05-23T06:58:42.569Z,18.73
2019-05-23T07:03:48.720Z,17.02
2019-05-23T07:08:55.193Z,17.20
2019-05-23T07:14:01.677Z,21.17
2019-05-23T07:19:08.496Z,16.90
2019-05-23T07:24:15.192Z,20.00
2019-05-23T07:29:21.494Z,19.03
2019-05-23T07:34:28.023Z,17.35
2019-05-23T07:39:35.061Z,18.80
2019-05-23T07:44:48.244Z,19.90
2019-05-23T07:49:50.419Z,20.05
2019-05-23T07:55:04.861Z,18.45
2019-05-23T08:00:18.627Z,18.20
2019-05-23T08:05:25.673Z,16.07
2019-05-23T08:10:34.436Z,15.28
2019-05-23T08:15:41.096Z,14.23
2019-05-23T08:20:47.226Z,10.37
2019-05-23T08:25:55.010Z,9.55
2019-05-23T08:31:01.849Z,8.38
2019-05-23T08:36:09.195Z,7.47
2019-05-23T08:41:15.416Z,8.87
2019-05-23T08:46:21.557Z,8.07
2019-05-23T08:51:28.135Z,9.03
2019-05-23T08:56:34.739Z,7.08
2019-05-23T09:01:41.488Z,8.28
2019-05-23T09:06:47.876Z,8.15
2019-05-23T09:11:55.371Z,5.03
2019-05-23T09:17:01.935Z,7.75
2019-05-23T09:22:08.519Z,8.53
2019-05-23T09:27:14.811Z,7.75
2019-05-23T09:32:21.514Z,8.27
2019-05-23T09:37:28.658Z,5.97
2019-05-23T09:42:34.847Z,7.70
2019-05-23T09:47:41.742Z,6.90
2019-05-23T09:52:47.889Z,5.22
2019-05-23T09:57:54.169Z,7.03
2019-05-23T10:03:02.100Z,6.87
2019-05-23T10:08:08.328Z,5.90
2019-05-23T10:13:15.711Z,6.95
2019-05-23T10:18:22.428Z,4.62
2019-05-23T10:23:28.816Z,5.00
2019-05-23T10:28:35.001Z,6.78
2019-05-23T10:33:41.168Z,4.47
2019-05-23T10:38:47.710Z,4.73
2019-05-23T10:43:54.035Z,4.73
2019-05-23T10:49:00.201Z,4.92
2019-05-23T10:54:06.703Z,5.00
2019-05-23T10:59:13.396Z,5.72
2019-05-23T11:04:20.184Z,7.50
2019-05-23T11:09:37.292Z,6.10
2019-05-23T11:14:35.513Z,4.92
2019-05-23T11:19:42.062Z,5.30
2019-05-23T11:24:48.695Z,3.37
2019-05-23T11:29:55.404Z,5.33
2019-05-23T11:35:02.420Z,4.08
2019-05-23T11:40:09.159Z,5.00
2019-05-23T11:45:15.583Z,4.47
2019-05-23T11:50:22.036Z,3.98
2019-05-23T11:55:28.477Z,3.10
2019-05-23T12:01:21.411Z,4.20
2019-05-23T12:06:33.099Z,4.72
2019-05-23T12:11:42.498Z,5.03
2019-05-23T12:16:47.367Z,3.85
2019-05-23T12:21:53.651Z,4.50
2019-05-23T12:27:02.894Z,4.03
2019-05-23T12:32:10.491Z,5.27
2019-05-23T12:37:19.980Z,3.37
2019-05-23T12:42:26.292Z,5.73
2019-05-23T12:47:43.815Z,6.70
2019-05-23T12:52:50.544Z,5.80
2019-05-23T12:57:56.759Z,4.70
2019-05-23T13:03:04.196Z,4.17
2019-05-23T13:08:11.095Z,5.85
2019-05-23T13:13:17.987Z,8.25
2019-05-23T13:18:24.272Z,3.73
2019-05-23T13:23:30.800Z,4.53
2019-05-23T13:28:37.285Z,5.75
2019-05-23T13:33:43.495Z,4.43
2019-05-23T13:38:52.028Z,5.43
2019-05-23T13:43:58.568Z,7.00
2019-05-23T13:49:05.618Z,5.17
2019-05-23T13:54:12.501Z,5.75
2019-05-23T13:59:19.022Z,7.08
2019-05-23T14:04:25.553Z,5.97
2019-05-23T14:09:32.929Z,5.65
2019-05-23T14:14:39.866Z,7.13
2019-05-23T14:19:46.395Z,5.35
2019-05-23T14:24:52.912Z,4.58
2019-05-23T14:30:09.361Z,5.40
2019-05-23T14:35:07.579Z,5.80
2019-05-23T14:40:16.835Z,5.87
2019-05-23T14:45:36.441Z,6.35
2019-05-23T14:51:00.304Z,6.97
2019-05-23T14:56:07.815Z,5.55
2019-05-23T15:01:15.146Z,18.47
2019-05-23T15:06:22.027Z,5.72
2019-05-23T15:11:28.807Z,7.10
2019-05-23T15:16:34.983Z,6.53
2019-05-23T15:21:41.753Z,12.27
2019-05-23T15:26:47.908Z,7.60
2019-05-23T15:32:02.299Z,6.07
2019-05-23T15:37:02.376Z,9.10
2019-05-23T15:42:08.913Z,59.50
2019-05-23T15:47:15.686Z,126.93
2019-05-23T15:52:31.220Z,4.27
2019-05-23T15:57:54.360Z,5.20
2019-05-23T16:03:08.866Z,4.60
2019-05-23T16:08:15.045Z,6.33
2019-05-23T16:13:24.513Z,6.35
2019-05-23T16:18:31.256Z,10.08
2019-05-23T16:23:37.368Z,9.25
2019-05-23T16:28:44.396Z,5.75
2019-05-23T16:33:50.831Z,15.03
2019-05-23T16:38:59.229Z,5.00
2019-05-23T16:44:05.518Z,6.30
2019-05-23T16:49:12.614Z,3.95
2019-05-23T16:54:21.436Z,3.77
2019-05-23T16:59:36.183Z,5.67
2019-05-23T17:05:08.445Z,4.43
2019-05-23T17:10:09.372Z,5.47
2019-05-23T17:15:37.240Z,5.87
2019-05-23T17:21:12.083Z,4.40
2019-05-23T17:26:24.794Z,3.87
2019-05-23T17:31:34.300Z,3.60
2019-05-23T17:36:40.331Z,6.00
2019-05-23T17:41:47.183Z,4.50
2019-05-23T17:46:53.724Z,3.70
2019-05-23T17:52:00.116Z,3.37
2019-05-23T17:57:06.570Z,10.78
2019-05-23T18:02:14.356Z,6.95
2019-05-23T18:07:20.904Z,5.53
2019-05-23T18:12:27.690Z,6.17
2019-05-23T18:17:34.451Z,4.25
2019-05-23T18:22:41.033Z,4.12
2019-05-23T18:27:47.737Z,4.80
2019-05-23T18:32:54.439Z,3.50
2019-05-23T18:38:00.883Z,3.75
2019-05-23T18:43:07.260Z,5.00
2019-05-23T18:48:13.436Z,4.25
2019-05-23T18:53:19.750Z,5.72
2019-05-23T18:58:26.236Z,4.28
2019-05-23T19:03:35.263Z,4.85
2019-05-23T19:08:42.177Z,4.03
2019-05-23T19:13:48.870Z,4.63
2019-05-23T19:18:56.068Z,4.30
2019-05-23T19:24:02.813Z,4.23
2019-05-23T19:29:11.324Z,6.50
2019-05-23T19:34:17.587Z,6.37
2019-05-23T19:39:24.901Z,5.85
2019-05-23T19:44:31.812Z,5.70
2019-05-23T19:49:39.171Z,7.07
2019-05-23T19:54:45.901Z,4.97
2019-05-23T19:59:52.471Z,5.55
2019-05-23T20:05:04.451Z,5.37
2019-05-23T20:10:10.820Z,5.15
2019-05-23T20:15:17.088Z,3.77
2019-05-23T20:20:23.276Z,6.20
2019-05-23T20:25:30.513Z,5.40
2019-05-23T20:30:58.579Z,4.08
2019-05-23T20:36:12.467Z,4.65
2019-05-23T20:41:18.216Z,5.37
2019-05-23T20:46:24.863Z,4.07
2019-05-23T20:51:31.704Z,4.80
2019-05-23T20:56:38.482Z,4.20
2019-05-23T21:01:45.053Z,6.55
2019-05-23T21:06:51.517Z,6.63
2019-05-23T21:11:58.266Z,5.92
2019-05-23T21:17:04.738Z,7.73
2019-05-23T21:22:11.349Z,7.20
2019-05-23T21:27:18.290Z,7.37
2019-05-23T21:32:24.719Z,6.43
2019-05-23T21:37:31.500Z,6.10
2019-05-23T21:42:47.262Z,6.47
2019-05-23T21:47:45.915Z,7.60
2019-05-23T21:52:53.051Z,6.33
2019-05-23T21:57:59.075Z,8.33
2019-05-23T22:03:06.905Z,6.13
2019-05-23T22:08:12.995Z,6.27
2019-05-23T22:13:20.072Z,6.20
2019-05-23T22:18:27.508Z,5.57
2019-05-23T22:23:34.865Z,6.60
2019-05-23T22:28:41.531Z,7.43
2019-05-23T22:33:53.591Z,6.60
2019-05-23T22:38:59.928Z,6.53
2019-05-23T22:44:07.990Z,7.13
2019-05-23T22:49:14.195Z,8.80
2019-05-23T22:54:20.372Z,7.47
2019-05-23T22:59:26.991Z,6.45
2019-05-23T23:04:33.530Z,6.60
2019-05-23T23:09:40.555Z,6.08
2019-05-23T23:14:46.566Z,8.27
2019-05-23T23:19:52.990Z,6.45
2019-05-23T23:24:59.762Z,7.53
2019-05-23T23:30:06.569Z,6.97
2019-05-23T23:35:16.115Z,6.40
2019-05-23T23:40:22.579Z,6.10
2019-05-23T23:45:46.402Z,7.95
2019-05-23T23:51:11.410Z,5.93
2019-05-23T23:56:35.730Z,6.55
